createdAt,value
2014-06-13T00:00:13.741Z,52.3
2014-06-13T00:01:18.431Z,52.53
2014-06-13T00:02:23.120Z,52.4
2014-06-13T00:03:27.810Z,52.72
2014-06-13T00:04:32.500Z,52.36
2014-06-13T00:05:37.189Z,52.85
2014-06-13T00:06:42.176Z,52.65
2014-06-13T00:07:46.865Z,52.69
2014-06-13T00:08:51.852Z,53.48
2014-06-13T00:09:56.838Z,52.47
2014-06-13T00:11:01.825Z,52.04
2014-06-13T00:12:06.811Z,52.93
2014-06-13T00:13:11.500Z,53.43
2014-06-13T00:14:16.487Z,52.97
2014-06-13T00:15:21.176Z,52.62
2014-06-13T00:16:26.147Z,52.9
2014-06-13T00:17:30.837Z,52.46
2014-06-13T00:18:35.525Z,53.1
2014-06-13T00:19:40.216Z,53.41
2014-06-13T00:20:44.905Z,53.87
2014-06-13T00:21:49.594Z,53.41
2014-06-13T00:22:54.283Z,53.91
2014-06-13T00:23:58.285Z,53.27
2014-06-13T00:25:02.977Z,53.06
2014-06-13T00:26:07.666Z,52.97
2014-06-13T00:27:12.356Z,52.47
2014-06-13T00:28:17.045Z,53.21
2014-06-13T00:29:21.735Z,52.64
2014-06-13T00:30:26.721Z,52.58
2014-06-13T00:31:31.706Z,53.08
2014-06-13T00:32:36.396Z,52.66
2014-06-13T00:33:41.085Z,53.31
2014-06-13T00:34:46.072Z,53.06
2014-06-13T00:35:50.777Z,53.2
2014-06-13T00:36:55.467Z,53.26
2014-06-13T00:38:00.156Z,53.23
2014-06-13T00:39:04.845Z,52.84
2014-06-13T00:40:09.818Z,53.3
2014-06-13T00:41:14.508Z,53.37
2014-06-13T00:42:19.197Z,53.41
2014-06-13T00:43:23.199Z,53.63
2014-06-13T00:44:27.889Z,53.19
2014-06-13T00:45:32.578Z,53.08
2014-06-13T00:46:37.268Z,53.24
2014-06-13T00:47:41.941Z,53.42
2014-06-13T00:48:45.943Z,53.17
2014-06-13T00:49:50.648Z,53.32
2014-06-13T00:50:55.337Z,52.68
2014-06-13T00:52:00.027Z,52.61
2014-06-13T00:53:04.716Z,52.88
2014-06-13T00:54:09.703Z,53.05
2014-06-13T00:55:14.691Z,53.25
2014-06-13T00:56:19.380Z,53.94
2014-06-13T00:57:24.053Z,52.99
2014-06-13T00:58:29.041Z,53.28
2014-06-13T00:59:33.730Z,54.18
2014-06-13T01:00:38.420Z,54.49
2014-06-13T01:01:43.108Z,53.42
2014-06-13T01:02:47.799Z,52.91
2014-06-13T01:03:52.471Z,53
2014-06-13T01:04:57.161Z,53.31
2014-06-13T01:06:01.850Z,53.22
2014-06-13T01:07:06.837Z,52.97
2014-06-13T01:08:11.526Z,53.35
2014-06-13T01:09:16.216Z,53.33
2014-06-13T01:10:20.907Z,52.91
2014-06-13T01:11:25.597Z,52.89
2014-06-13T01:12:30.286Z,53.6
2014-06-13T01:13:34.976Z,53.95
2014-06-13T01:14:39.665Z,53.73
2014-06-13T01:15:43.667Z,53.93
2014-06-13T01:16:48.340Z,53.24
2014-06-13T01:17:53.030Z,52.96
2014-06-13T01:18:57.719Z,53.27
2014-06-13T01:20:02.706Z,53.73
2014-06-13T01:21:07.411Z,53.77
2014-06-13T01:22:12.100Z,54.84
2014-06-13T01:23:16.790Z,54.23
2014-06-13T01:24:21.479Z,53.91
2014-06-13T01:25:26.171Z,53.56
2014-06-13T01:26:31.157Z,53.5
2014-06-13T01:27:35.846Z,54.42
2014-06-13T01:28:40.535Z,54.11
2014-06-13T01:29:45.226Z,54.17
2014-06-13T01:30:49.914Z,54.07
2014-06-13T01:31:54.604Z,54.01
2014-06-13T01:32:59.294Z,53.85
2014-06-13T01:34:03.983Z,53.9
2014-06-13T01:35:08.657Z,54.23
2014-06-13T01:36:13.346Z,53.92
2014-06-13T01:37:18.035Z,54.19
2014-06-13T01:38:22.725Z,54
2014-06-13T01:39:27.713Z,54.71
2014-06-13T01:40:32.403Z,54.16
2014-06-13T01:41:37.091Z,53.93
2014-06-13T01:42:41.782Z,53.69
2014-06-13T01:43:46.470Z,53.49
2014-06-13T01:44:51.161Z,53.77
2014-06-13T01:45:55.850Z,53.98
2014-06-13T01:47:00.524Z,53.44
2014-06-13T01:48:05.510Z,53.57
2014-06-13T01:49:10.200Z,53.5
2014-06-13T01:50:14.890Z,53.29
2014-06-13T01:51:19.578Z,52.66
2014-06-13T01:52:24.268Z,52.92
2014-06-13T01:53:28.958Z,52.48
2014-06-13T01:54:33.943Z,52.86
2014-06-13T01:55:37.947Z,52.64
2014-06-13T01:56:42.621Z,52.42
2014-06-13T01:57:47.326Z,53.3
2014-06-13T01:58:52.000Z,52.49
2014-06-13T01:59:56.690Z,52.44
2014-06-13T02:01:01.676Z,52.11
2014-06-13T02:02:06.663Z,52.35
2014-06-13T02:03:11.352Z,52.17
2014-06-13T02:04:16.338Z,52.25
2014-06-13T02:05:21.029Z,52.4
2014-06-13T02:06:25.702Z,52.41
2014-06-13T02:07:30.689Z,52.1
2014-06-13T02:08:35.378Z,52.18
2014-06-13T02:09:39.380Z,51.89
2014-06-13T02:10:44.070Z,52.01
2014-06-13T02:11:49.056Z,52.15
2014-06-13T02:12:53.746Z,51.54
2014-06-13T02:13:58.436Z,52.39
2014-06-13T02:15:03.124Z,52.91
2014-06-13T02:16:07.814Z,52.69
2014-06-13T02:17:12.505Z,52.44
2014-06-13T02:18:17.194Z,52.52
2014-06-13T02:19:21.884Z,53.41
2014-06-13T02:20:26.869Z,52.47
2014-06-13T02:21:31.857Z,52.57
2014-06-13T02:22:36.843Z,52.72
2014-06-13T02:23:41.517Z,53.13
2014-06-13T02:24:46.207Z,53.82
2014-06-13T02:25:50.896Z,53.55
2014-06-13T02:26:55.586Z,53.25
2014-06-13T02:28:00.571Z,53.08
2014-06-13T02:29:05.261Z,52.37
2014-06-13T02:30:09.951Z,52.25
2014-06-13T02:31:14.639Z,52.1
2014-06-13T02:32:19.627Z,52.32
2014-06-13T02:33:24.316Z,52.49
2014-06-13T02:34:28.990Z,52.54
2014-06-13T02:35:33.679Z,52.07
2014-06-13T02:36:37.682Z,52.01
2014-06-13T02:37:42.370Z,51.95
2014-06-13T02:38:47.357Z,51.79
2014-06-13T02:39:52.046Z,51.9
2014-06-13T02:40:56.736Z,52.67
2014-06-13T02:42:01.427Z,52.8
2014-06-13T02:43:06.117Z,51.89
2014-06-13T02:44:10.805Z,52.26
2014-06-13T02:45:15.496Z,53.15
2014-06-13T02:46:20.185Z,52.75
2014-06-13T02:47:24.875Z,52.49
2014-06-13T02:48:29.564Z,52.23
2014-06-13T02:49:34.253Z,52.53
2014-06-13T02:50:38.943Z,52.27
2014-06-13T02:51:43.632Z,52.57
2014-06-13T02:52:48.322Z,52.59
2014-06-13T02:53:53.308Z,53.08
2014-06-13T02:54:57.997Z,53.04
2014-06-13T02:56:02.686Z,53.03
2014-06-13T02:57:07.378Z,52.99
2014-06-13T02:58:12.067Z,52.51
2014-06-13T02:59:17.054Z,52.52
2014-06-13T03:00:21.743Z,52.92
2014-06-13T03:01:26.432Z,52.73
2014-06-13T03:02:31.403Z,52.58
2014-06-13T03:03:36.092Z,52.66
2014-06-13T03:04:40.783Z,53.29
2014-06-13T03:05:45.471Z,53.52
2014-06-13T03:06:50.161Z,53.45
2014-06-13T03:07:54.850Z,52.56
2014-06-13T03:08:59.540Z,52.51
2014-06-13T03:10:04.229Z,52.14
2014-06-13T03:11:08.919Z,51.68
2014-06-13T03:12:13.610Z,52.33
2014-06-13T03:13:18.596Z,52.67
2014-06-13T03:14:23.286Z,53.42
2014-06-13T03:15:27.975Z,52.28
2014-06-13T03:16:32.649Z,52.76
2014-06-13T03:17:37.636Z,52.11
2014-06-13T03:18:42.325Z,52.29
2014-06-13T03:19:47.015Z,51.77
2014-06-13T03:20:51.690Z,51.89
2014-06-13T03:21:56.379Z,51.8
2014-06-13T03:23:01.084Z,52.32
2014-06-13T03:24:05.774Z,52.39
2014-06-13T03:25:10.448Z,51.98
2014-06-13T03:26:15.433Z,52.01
2014-06-13T03:27:20.123Z,52.03
2014-06-13T03:28:24.813Z,52.39
2014-06-13T03:29:29.798Z,52.61
2014-06-13T03:30:34.489Z,53.12
2014-06-13T03:31:39.163Z,53.54
2014-06-13T03:32:44.148Z,53.3
2014-06-13T03:33:48.839Z,53.54
2014-06-13T03:34:52.840Z,53.28
2014-06-13T03:35:57.529Z,53.02
2014-06-13T03:37:02.219Z,52.79
2014-06-13T03:38:06.908Z,52.58
2014-06-13T03:39:11.600Z,52.26
2014-06-13T03:40:16.289Z,52.04
2014-06-13T03:41:20.978Z,52.14
2014-06-13T03:42:25.965Z,52.48
2014-06-13T03:43:30.654Z,52.3
2014-06-13T03:44:35.344Z,52.85
2014-06-13T03:45:40.018Z,53.26
2014-06-13T03:46:44.707Z,52.97
2014-06-13T03:47:49.693Z,52.96
2014-06-13T03:48:54.679Z,52.79
2014-06-13T03:49:59.370Z,53.78
2014-06-13T03:51:04.060Z,53.57
2014-06-13T03:52:08.749Z,53.38
2014-06-13T03:53:13.439Z,53.11
2014-06-13T03:54:18.129Z,52.91
2014-06-13T03:55:22.817Z,53.2
2014-06-13T03:56:27.508Z,53.42
2014-06-13T03:57:32.197Z,54.27
2014-06-13T03:58:36.887Z,54.22
2014-06-13T03:59:41.873Z,53.67
2014-06-13T04:00:46.561Z,54.15
2014-06-13T04:01:51.548Z,53.97
2014-06-13T04:02:56.237Z,53.75
2014-06-13T04:04:00.927Z,53.66
2014-06-13T04:05:05.616Z,53.5
2014-06-13T04:06:10.290Z,53.38
2014-06-13T04:07:14.980Z,53.18
2014-06-13T04:08:19.968Z,53.29
2014-06-13T04:09:24.954Z,53.79
2014-06-13T04:10:29.644Z,54.3
2014-06-13T04:11:34.333Z,53.92
2014-06-13T04:12:39.023Z,53.34
2014-06-13T04:13:43.712Z,53.49
2014-06-13T04:14:48.386Z,53.69
2014-06-13T04:15:53.076Z,54.36
2014-06-13T04:16:57.765Z,54.11
2014-06-13T04:18:02.455Z,54.15
2014-06-13T04:19:07.441Z,53.92
2014-06-13T04:20:12.115Z,53.78
2014-06-13T04:21:17.102Z,53.59
2014-06-13T04:22:22.088Z,53.8
2014-06-13T04:23:27.075Z,53.38
2014-06-13T04:24:31.765Z,53.37
2014-06-13T04:25:36.453Z,53.86
2014-06-13T04:26:41.144Z,53.7
2014-06-13T04:27:45.833Z,53.54
2014-06-13T04:28:50.506Z,54.31
2014-06-13T04:29:55.492Z,54.34
2014-06-13T04:30:59.494Z,54.87
2014-06-13T04:32:04.481Z,55.14
2014-06-13T04:33:09.155Z,54.24
2014-06-13T04:34:14.141Z,54.26
2014-06-13T04:35:18.831Z,54.24
2014-06-13T04:36:22.833Z,54.24
2014-06-13T04:37:27.819Z,54.12
2014-06-13T04:38:32.510Z,54.32
2014-06-13T04:39:37.497Z,53.53
2014-06-13T04:40:42.186Z,53.53
2014-06-13T04:41:46.876Z,53.56
2014-06-13T04:42:51.550Z,53.98
2014-06-13T04:43:56.239Z,53.62
2014-06-13T04:45:00.928Z,54.5
2014-06-13T04:46:05.617Z,55.25
2014-06-13T04:47:10.307Z,54.17
2014-06-13T04:48:14.996Z,55.1
2014-06-13T04:49:19.687Z,54.27
2014-06-13T04:50:24.382Z,54.3
2014-06-13T04:51:29.105Z,53.48
2014-06-13T04:52:33.829Z,53.99
2014-06-13T04:53:38.553Z,53.67
2014-06-13T04:54:43.572Z,53.68
2014-06-13T04:55:48.297Z,53.89
2014-06-13T04:56:52.999Z,54.43
2014-06-13T04:57:57.700Z,53.45
2014-06-13T04:59:02.699Z,53.65
2014-06-13T05:00:07.396Z,53.55
2014-06-13T05:01:12.090Z,54.68
2014-06-13T05:02:16.784Z,53.42
2014-06-13T05:03:21.572Z,53.26
2014-06-13T05:04:26.266Z,54.22
2014-06-13T05:05:30.958Z,53.95
2014-06-13T05:06:35.945Z,53.8
2014-06-13T05:07:40.621Z,53.78
2014-06-13T05:08:45.313Z,54.31
2014-06-13T05:09:50.302Z,55.12
2014-06-13T05:10:54.993Z,54.31
2014-06-13T05:11:59.683Z,53.66
2014-06-13T05:13:04.373Z,53.74
2014-06-13T05:14:09.063Z,54.62
2014-06-13T05:15:13.754Z,53.81
2014-06-13T05:16:18.442Z,53.49
2014-06-13T05:17:23.132Z,53.7
2014-06-13T05:18:27.806Z,53.45
2014-06-13T05:19:32.792Z,53.05
2014-06-13T05:20:37.481Z,53.67
2014-06-13T05:21:42.172Z,54.5
2014-06-13T05:22:47.158Z,53.77
2014-06-13T05:23:51.848Z,54.1
2014-06-13T05:24:56.523Z,54.1
2014-06-13T05:26:01.211Z,53.41
2014-06-13T05:27:05.902Z,53.45
2014-06-13T05:28:10.591Z,53.84
2014-06-13T05:29:15.577Z,53
2014-06-13T05:30:19.875Z,53.14
2014-06-13T05:31:24.565Z,53.49
2014-06-13T05:32:29.254Z,53.7
2014-06-13T05:33:33.928Z,53.77
2014-06-13T05:34:38.915Z,54.1
2014-06-13T05:35:43.604Z,54.31
2014-06-13T05:36:48.591Z,54.3
2014-06-13T05:37:53.281Z,53.7
2014-06-13T05:38:58.253Z,53.9
2014-06-13T05:40:02.942Z,53.6
2014-06-13T05:41:07.631Z,53.2
2014-06-13T05:42:12.305Z,53.58
2014-06-13T05:43:16.994Z,53.85
2014-06-13T05:44:21.981Z,53.79
2014-06-13T05:45:26.670Z,54.42
2014-06-13T05:46:31.361Z,53.37
2014-06-13T05:47:36.050Z,52.45
2014-06-13T05:48:40.739Z,51.75
2014-06-13T05:49:45.725Z,51.05
2014-06-13T05:50:50.711Z,50.89
2014-06-13T05:51:55.402Z,50.27
2014-06-13T05:53:00.076Z,49.59
2014-06-13T05:54:04.782Z,49.26
2014-06-13T05:55:09.471Z,49.8
2014-06-13T05:56:14.457Z,49.22
2014-06-13T05:57:19.146Z,48.7
2014-06-13T05:58:23.820Z,48.44
2014-06-13T05:59:28.525Z,47.93
2014-06-13T06:00:33.215Z,47.46
2014-06-13T06:01:38.201Z,48.85
2014-06-13T06:02:42.891Z,47.78
2014-06-13T06:03:47.580Z,47.09
2014-06-13T06:04:52.270Z,46.69
2014-06-13T06:05:56.958Z,46.51
2014-06-13T06:07:01.650Z,45.83
2014-06-13T06:08:06.636Z,45.28
2014-06-13T06:09:11.325Z,43.03
2014-06-13T06:10:16.016Z,38.9
2014-06-13T06:11:21.001Z,37.07
2014-06-13T06:12:25.692Z,35.11
2014-06-13T06:13:30.380Z,35.01
2014-06-13T06:14:35.070Z,32.92
2014-06-13T06:15:39.759Z,32.14
2014-06-13T06:16:44.450Z,32.05
2014-06-13T06:17:49.138Z,31.41
2014-06-13T06:18:53.828Z,31.36
2014-06-13T06:19:58.533Z,32.36
2014-06-13T06:21:03.222Z,30.91
2014-06-13T06:22:07.911Z,29.6
2014-06-13T06:23:12.601Z,30.12
2014-06-13T06:24:17.292Z,30.14
2014-06-13T06:25:21.981Z,29.45
2014-06-13T06:26:26.983Z,28.62
2014-06-13T06:27:31.673Z,29.36
2014-06-13T06:28:36.379Z,28.53
2014-06-13T06:29:41.365Z,27.96
2014-06-13T06:30:46.055Z,30.17
2014-06-13T06:31:50.760Z,32.27
2014-06-13T06:32:55.451Z,30.07
2014-06-13T06:34:00.155Z,28.89
2014-06-13T06:35:04.844Z,30.92
2014-06-13T06:36:09.534Z,34.99
2014-06-13T06:37:14.536Z,37.23
2014-06-13T06:38:19.225Z,37.36
2014-06-13T06:39:24.524Z,37.52
2014-06-13T06:40:29.511Z,39.56
2014-06-13T06:41:34.200Z,40.69
2014-06-13T06:42:39.186Z,41.57
2014-06-13T06:43:43.891Z,40.57
2014-06-13T06:44:48.581Z,39.98
2014-06-13T06:45:53.270Z,40.65
2014-06-13T06:46:57.976Z,42.27
2014-06-13T06:48:02.665Z,41.43
2014-06-13T06:49:07.355Z,41.49
2014-06-13T06:50:12.044Z,39.88
2014-06-13T06:51:16.734Z,38.33
2014-06-13T06:52:21.424Z,37.21
2014-06-13T06:53:26.115Z,38.39
2014-06-13T06:54:30.803Z,39.33
2014-06-13T06:55:35.494Z,39.69
2014-06-13T06:56:40.183Z,40.18
2014-06-13T06:57:44.872Z,40.82
2014-06-13T06:58:49.874Z,40.8
2014-06-13T06:59:54.860Z,41.18
2014-06-13T07:00:59.550Z,40.61
2014-06-13T07:02:04.240Z,41.36
2014-06-13T07:03:08.929Z,40.29
2014-06-13T07:04:13.619Z,41.67
2014-06-13T07:05:17.638Z,41.95
2014-06-13T07:06:22.624Z,42.61
2014-06-13T07:07:27.312Z,43.43
2014-06-13T07:08:32.299Z,42.69
2014-06-13T07:09:37.004Z,42.36
2014-06-13T07:10:41.693Z,41.83
2014-06-13T07:11:46.383Z,41.53
2014-06-13T07:12:51.072Z,41.94
2014-06-13T07:13:55.762Z,41.75
2014-06-13T07:15:00.451Z,42.28
2014-06-13T07:16:05.140Z,41.62
2014-06-13T07:17:09.876Z,41.62
2014-06-13T07:18:14.567Z,42.98
2014-06-13T07:19:19.255Z,43.23
2014-06-13T07:20:23.947Z,42.88
2014-06-13T07:21:28.636Z,41.87
2014-06-13T07:22:33.326Z,42.47
2014-06-13T07:23:38.015Z,43.04
2014-06-13T07:24:43.002Z,43.28
2014-06-13T07:25:47.988Z,43.9
2014-06-13T07:26:52.678Z,43.06
2014-06-13T07:27:57.367Z,42.9
2014-06-13T07:29:02.057Z,43.11
2014-06-13T07:30:06.746Z,43.2
2014-06-13T07:31:11.732Z,43.26
2014-06-13T07:32:16.422Z,42.11
2014-06-13T07:33:21.111Z,41.99
2014-06-13T07:34:25.802Z,41.13
2014-06-13T07:35:30.789Z,42.03
2014-06-13T07:36:35.790Z,42.15
2014-06-13T07:37:40.480Z,42.34
2014-06-13T07:38:45.763Z,43.57
2014-06-13T07:39:50.453Z,42.27
2014-06-13T07:40:55.141Z,42.72
2014-06-13T07:41:59.832Z,42.79
2014-06-13T07:43:04.521Z,42.78
2014-06-13T07:44:09.210Z,42.55
2014-06-13T07:45:13.915Z,41.96
2014-06-13T07:46:18.901Z,43.49
2014-06-13T07:47:23.887Z,43.61
2014-06-13T07:48:28.874Z,42.87
2014-06-13T07:49:32.879Z,42.52
2014-06-13T07:50:37.568Z,42.91
2014-06-13T07:51:42.257Z,43.1
2014-06-13T07:52:46.946Z,43.3
2014-06-13T07:53:51.636Z,43.11
2014-06-13T07:54:56.325Z,43.4
2014-06-13T07:56:01.015Z,43.52
2014-06-13T07:57:06.002Z,43.59
2014-06-13T07:58:10.988Z,42.78
2014-06-13T07:59:15.677Z,43.66
2014-06-13T08:00:20.663Z,44.25
2014-06-13T08:01:25.369Z,43.18
2014-06-13T08:02:30.058Z,43.09
2014-06-13T08:03:34.748Z,42.41
2014-06-13T08:04:39.437Z,43.13
2014-06-13T08:05:44.127Z,42.7
2014-06-13T08:06:48.130Z,43.41
2014-06-13T08:07:53.116Z,43.61
2014-06-13T08:08:57.806Z,44.73
2014-06-13T08:10:02.495Z,43.84
2014-06-13T08:11:07.185Z,42.57
2014-06-13T08:12:12.171Z,42.52
2014-06-13T08:13:16.861Z,42.73
2014-06-13T08:14:21.551Z,43.8
2014-06-13T08:15:26.240Z,42.13
2014-06-13T08:16:30.930Z,42.52
2014-06-13T08:17:35.651Z,42.29
2014-06-13T08:18:40.637Z,43.65
2014-06-13T08:19:45.326Z,42.03
2014-06-13T08:20:50.016Z,42.96
2014-06-13T08:21:54.705Z,42.82
2014-06-13T08:22:59.395Z,43.71
2014-06-13T08:24:04.083Z,45.13
2014-06-13T08:25:09.071Z,44.91
2014-06-13T08:26:13.760Z,43.76
2014-06-13T08:27:18.450Z,42.14
2014-06-13T08:28:23.139Z,41.87
2014-06-13T08:29:28.141Z,41.88
2014-06-13T08:30:32.832Z,42.38
2014-06-13T08:31:36.834Z,42.28
2014-06-13T08:32:41.523Z,41.72
2014-06-13T08:33:46.213Z,43.01
2014-06-13T08:34:50.902Z,41.53
2014-06-13T08:35:55.607Z,40.35
2014-06-13T08:37:00.297Z,40.23
2014-06-13T08:38:04.986Z,40.42
2014-06-13T08:39:09.973Z,40.18
2014-06-13T08:40:14.662Z,40.66
2014-06-13T08:41:19.366Z,40.9
2014-06-13T08:42:24.056Z,40.96
2014-06-13T08:43:28.745Z,40.55
2014-06-13T08:44:33.436Z,40.66
2014-06-13T08:45:38.141Z,42.05
2014-06-13T08:46:42.831Z,39.95
2014-06-13T08:47:47.519Z,40.28
2014-06-13T08:48:51.820Z,40.59
2014-06-13T08:49:56.509Z,39.67
2014-06-13T08:51:01.215Z,39.96
2014-06-13T08:52:05.904Z,41.74
2014-06-13T08:53:10.594Z,40.07
2014-06-13T08:54:15.579Z,41.74
2014-06-13T08:55:20.285Z,41.42
2014-06-13T08:56:24.975Z,40.43
2014-06-13T08:57:29.664Z,41.85
2014-06-13T08:58:34.353Z,41.7
2014-06-13T08:59:39.042Z,42.05
2014-06-13T09:00:43.733Z,40.59
2014-06-13T09:01:48.421Z,43.09
2014-06-13T09:02:53.408Z,42.26
2014-06-13T09:03:58.100Z,42.95
2014-06-13T09:05:02.789Z,41.54
2014-06-13T09:06:07.775Z,40.59
2014-06-13T09:07:12.761Z,41.16
2014-06-13T09:08:17.451Z,41.53
2014-06-13T09:09:22.437Z,40.81
2014-06-13T09:10:27.127Z,40.57
2014-06-13T09:11:31.816Z,41.79
2014-06-13T09:12:36.521Z,39.91
2014-06-13T09:13:41.522Z,41.51
2014-06-13T09:14:46.213Z,42.46
2014-06-13T09:15:50.903Z,42.87
2014-06-13T09:16:55.593Z,41.24
2014-06-13T09:18:00.579Z,41.21
2014-06-13T09:19:05.270Z,42.33
2014-06-13T09:20:10.255Z,42.4
2014-06-13T09:21:14.944Z,40.69
2014-06-13T09:22:19.931Z,39.81
2014-06-13T09:23:24.620Z,41.03
2014-06-13T09:24:29.310Z,41.76
2014-06-13T09:25:33.999Z,43.18
2014-06-13T09:26:38.689Z,42.68
2014-06-13T09:27:43.378Z,42
2014-06-13T09:28:48.365Z,41.7
2014-06-13T09:29:53.053Z,41.18
2014-06-13T09:30:57.745Z,41.12
2014-06-13T09:32:02.450Z,40.79
2014-06-13T09:33:07.139Z,41.06
2014-06-13T09:34:12.126Z,40.62
2014-06-13T09:35:16.815Z,43.24
2014-06-13T09:36:21.505Z,43.71
2014-06-13T09:37:26.194Z,41.45
2014-06-13T09:38:30.884Z,40.37
2014-06-13T09:39:35.589Z,40.77
2014-06-13T09:40:40.277Z,40.67
2014-06-13T09:41:44.968Z,40.98
2014-06-13T09:42:49.657Z,41.37
2014-06-13T09:43:54.347Z,39.91
2014-06-13T09:44:59.036Z,40.25
2014-06-13T09:46:03.726Z,40.41
2014-06-13T09:47:08.712Z,39.67
2014-06-13T09:48:13.417Z,39.72
2014-06-13T09:49:18.108Z,39.24
2014-06-13T09:50:22.797Z,39.33
2014-06-13T09:51:27.487Z,39.41
2014-06-13T09:52:32.176Z,39.31
2014-06-13T09:53:36.866Z,38.83
2014-06-13T09:54:41.555Z,39.05
2014-06-13T09:55:46.260Z,39.05
2014-06-13T09:56:50.950Z,38.44
2014-06-13T09:57:56.234Z,38.5
2014-06-13T09:59:00.923Z,40.17
2014-06-13T10:00:05.613Z,38.96
2014-06-13T10:01:10.303Z,38.63
2014-06-13T10:02:15.008Z,38.33
2014-06-13T10:03:19.697Z,39.36
2014-06-13T10:04:24.387Z,38.38
2014-06-13T10:05:29.076Z,37.95
2014-06-13T10:06:33.781Z,37.98
2014-06-13T10:07:38.471Z,37.98
2014-06-13T10:08:43.754Z,38.4
2014-06-13T10:09:48.444Z,38.14
2014-06-13T10:10:53.132Z,40.16
2014-06-13T10:11:57.823Z,38.49
2014-06-13T10:13:02.528Z,37.63
2014-06-13T10:14:07.217Z,37.69
2014-06-13T10:15:11.907Z,38.59
2014-06-13T10:16:16.595Z,38.14
2014-06-13T10:17:21.300Z,36.86
2014-06-13T10:18:25.990Z,37.47
2014-06-13T10:19:30.978Z,37.8
2014-06-13T10:20:35.683Z,37.84
2014-06-13T10:21:40.373Z,36.92
2014-06-13T10:22:45.062Z,38.71
2014-06-13T10:23:49.752Z,38.22
2014-06-13T10:24:54.442Z,38.12
2014-06-13T10:25:59.131Z,39.39
2014-06-13T10:27:03.821Z,39.26
2014-06-13T10:28:08.511Z,39.28
2014-06-13T10:29:13.200Z,39.51
2014-06-13T10:30:17.890Z,38.94
2014-06-13T10:31:22.595Z,38.83
2014-06-13T10:32:27.285Z,37.7
2014-06-13T10:33:31.990Z,37.41
2014-06-13T10:34:37.273Z,37.83
2014-06-13T10:35:41.962Z,37.59
2014-06-13T10:36:46.668Z,38.24
2014-06-13T10:37:51.357Z,37.79
2014-06-13T10:38:56.047Z,38.11
2014-06-13T10:40:00.736Z,37.89
2014-06-13T10:41:05.426Z,38.74
2014-06-13T10:42:10.115Z,37.55
2014-06-13T10:43:14.116Z,37.09
2014-06-13T10:44:19.118Z,36.78
2014-06-13T10:45:23.809Z,37.28
2014-06-13T10:46:28.497Z,36.54
2014-06-13T10:47:33.189Z,35.96
2014-06-13T10:48:37.878Z,36.08
2014-06-13T10:49:42.584Z,36.06
2014-06-13T10:50:47.273Z,36.6
2014-06-13T10:51:52.259Z,37.03
2014-06-13T10:52:56.949Z,36.53
2014-06-13T10:54:01.638Z,36.68
2014-06-13T10:55:06.624Z,36.68
2014-06-13T10:56:11.314Z,35.91
2014-06-13T10:57:16.004Z,35.06
2014-06-13T10:58:20.694Z,35.37
2014-06-13T10:59:25.383Z,34.86
2014-06-13T11:00:30.089Z,37.58
2014-06-13T11:01:34.091Z,35.34
2014-06-13T11:02:38.780Z,35.23
2014-06-13T11:03:43.470Z,35.64
2014-06-13T11:04:48.159Z,35.37
2014-06-13T11:05:52.849Z,35.83
2014-06-13T11:06:57.538Z,34.57
2014-06-13T11:08:02.259Z,34.5
2014-06-13T11:09:06.947Z,35.14
2014-06-13T11:10:11.935Z,35.68
2014-06-13T11:11:16.623Z,34.46
2014-06-13T11:12:21.328Z,34.57
2014-06-13T11:13:26.316Z,35.44
2014-06-13T11:14:31.005Z,35.49
2014-06-13T11:15:35.694Z,35.76
2014-06-13T11:16:40.384Z,37.61
2014-06-13T11:17:45.073Z,37.98
2014-06-13T11:18:49.764Z,37.57
2014-06-13T11:19:54.454Z,37.33
2014-06-13T11:20:59.143Z,37.76
2014-06-13T11:22:03.833Z,37.65
2014-06-13T11:23:08.522Z,37.44
2014-06-13T11:24:13.227Z,38.45
2014-06-13T11:25:17.918Z,37.39
2014-06-13T11:26:22.606Z,36.62
2014-06-13T11:27:27.296Z,36.75
2014-06-13T11:28:31.986Z,36.62
2014-06-13T11:29:36.675Z,36
2014-06-13T11:30:41.661Z,35.36
2014-06-13T11:31:46.649Z,36.88
2014-06-13T11:32:51.338Z,35.85
2014-06-13T11:33:56.027Z,36.17
2014-06-13T11:35:00.030Z,34.77
2014-06-13T11:36:04.719Z,35.66
2014-06-13T11:37:09.409Z,35.5
2014-06-13T11:38:14.395Z,35.75
2014-06-13T11:39:19.100Z,35.48
2014-06-13T11:40:23.790Z,34.29
2014-06-13T11:41:28.479Z,34.41
2014-06-13T11:42:33.168Z,34.04
2014-06-13T11:43:37.857Z,33.01
2014-06-13T11:44:42.843Z,33.87
2014-06-13T11:45:47.534Z,33.78
2014-06-13T11:46:52.222Z,33.97
2014-06-13T11:47:56.914Z,34.69
2014-06-13T11:49:01.916Z,34.41
2014-06-13T11:50:06.605Z,34.55
2014-06-13T11:51:11.592Z,35.81
2014-06-13T11:52:16.281Z,35.32
2014-06-13T11:53:21.268Z,34.96
2014-06-13T11:54:26.254Z,35.21
2014-06-13T11:55:30.945Z,34.2
2014-06-13T11:56:35.634Z,33.08
2014-06-13T11:57:40.324Z,33.23
2014-06-13T11:58:45.310Z,33.14
2014-06-13T11:59:50.015Z,33.71
2014-06-13T12:00:54.705Z,34.24
2014-06-13T12:01:59.394Z,33.94
2014-06-13T12:03:04.084Z,34.35
2014-06-13T12:04:08.789Z,34.57
2014-06-13T12:05:13.478Z,34.5
2014-06-13T12:06:18.167Z,33.88
2014-06-13T12:07:22.857Z,34.02
2014-06-13T12:08:27.546Z,34.06
2014-06-13T12:09:32.236Z,33.58
2014-06-13T12:10:36.926Z,33.93
2014-06-13T12:11:41.615Z,33.24
2014-06-13T12:12:46.319Z,33.67
2014-06-13T12:13:51.009Z,33.87
2014-06-13T12:14:55.995Z,33.09
2014-06-13T12:16:00.685Z,33.37
2014-06-13T12:17:05.376Z,34.45
2014-06-13T12:18:10.066Z,34.21
2014-06-13T12:19:14.755Z,34.03
2014-06-13T12:20:19.491Z,33.03
2014-06-13T12:21:24.197Z,33.02
2014-06-13T12:22:28.887Z,34.24
2014-06-13T12:23:33.576Z,35.68
2014-06-13T12:24:38.265Z,36.63
2014-06-13T12:25:42.955Z,35.92
2014-06-13T12:26:48.238Z,35.13
2014-06-13T12:27:52.928Z,35.62
2014-06-13T12:28:57.618Z,34.35
2014-06-13T12:30:02.307Z,34.7
2014-06-13T12:31:06.997Z,34.53
2014-06-13T12:32:11.686Z,37.07
2014-06-13T12:33:16.673Z,34.95
2014-06-13T12:34:21.362Z,35.33
2014-06-13T12:35:26.349Z,34.21
2014-06-13T12:36:31.038Z,35.27
2014-06-13T12:37:35.743Z,34.51
2014-06-13T12:38:40.730Z,34.61
2014-06-13T12:39:45.420Z,33.65
2014-06-13T12:40:50.110Z,33.45
2014-06-13T12:41:54.799Z,34.51
2014-06-13T12:42:59.488Z,34.44
2014-06-13T12:44:04.178Z,35.45
2014-06-13T12:45:09.164Z,35.11
2014-06-13T12:46:13.854Z,34.68
2014-06-13T12:47:18.544Z,35.73
2014-06-13T12:48:23.233Z,35.53
2014-06-13T12:49:27.923Z,35
2014-06-13T12:50:32.611Z,34.28
2014-06-13T12:51:37.895Z,35.54
2014-06-13T12:52:42.600Z,34.99
2014-06-13T12:53:47.290Z,34.32
2014-06-13T12:54:51.979Z,33.8
2014-06-13T12:55:56.669Z,33.65
2014-06-13T12:57:01.358Z,33.92
2014-06-13T12:58:06.047Z,33.91
2014-06-13T12:59:10.754Z,34.42
2014-06-13T13:00:15.474Z,34.77
2014-06-13T13:01:20.461Z,34.89
2014-06-13T13:02:25.151Z,35.16
2014-06-13T13:03:29.839Z,35.86
2014-06-13T13:04:34.530Z,34.02
2014-06-13T13:05:39.516Z,33.88
2014-06-13T13:06:44.205Z,34.12
2014-06-13T13:07:48.894Z,33.8
2014-06-13T13:08:53.897Z,34
2014-06-13T13:09:58.883Z,32.68
2014-06-13T13:11:03.572Z,32.06
2014-06-13T13:12:08.261Z,31.56
2014-06-13T13:13:12.951Z,31.41
2014-06-13T13:14:17.656Z,32.18
2014-06-13T13:15:22.642Z,33.09
2014-06-13T13:16:27.334Z,33.23
2014-06-13T13:17:32.023Z,32.96
2014-06-13T13:18:36.713Z,32.04
2014-06-13T13:19:41.402Z,32.07
2014-06-13T13:21:52.797Z,32.73
2014-06-13T13:22:57.488Z,33.11
2014-06-13T13:24:02.176Z,32.45
2014-06-13T13:25:06.867Z,33.71
2014-06-13T13:26:11.555Z,33.09
2014-06-13T13:27:16.246Z,32.91
2014-06-13T13:28:20.935Z,33.26
2014-06-13T13:29:25.670Z,32.63
2014-06-13T13:30:30.658Z,32.81
2014-06-13T13:31:35.347Z,32.72
2014-06-13T13:32:40.037Z,33.42
2014-06-13T13:33:44.725Z,33.77
2014-06-13T13:34:49.416Z,33.22
2014-06-13T13:35:54.104Z,32.13
2014-06-13T13:36:58.795Z,32.94
2014-06-13T13:38:03.483Z,32.79
2014-06-13T13:39:08.470Z,33.61
2014-06-13T13:40:13.457Z,33.44
2014-06-13T13:41:18.161Z,33.81
2014-06-13T13:42:22.852Z,33.24
2014-06-13T13:43:27.838Z,31.29
2014-06-13T13:44:32.527Z,30.9
2014-06-13T13:45:37.218Z,30.44
2014-06-13T13:46:41.908Z,31.81
2014-06-13T13:47:46.597Z,31.8
2014-06-13T13:48:51.287Z,32.5
2014-06-13T13:49:55.976Z,32.94
2014-06-13T13:51:00.666Z,33.31
2014-06-13T13:52:05.355Z,33.23
2014-06-13T13:53:10.044Z,32.66
2014-06-13T13:54:14.765Z,32.53
2014-06-13T13:55:19.455Z,32.31
2014-06-13T13:56:23.489Z,32.73
2014-06-13T13:57:28.219Z,32.46